createdAt,value
2018-03-03T00:01:46.132Z,16.12
2018-03-03T00:04:15.009Z,17.17
2018-03-03T00:06:41.975Z,17.85
2018-03-03T00:09:09.946Z,18.67
2018-03-03T00:11:36.866Z,16.73
2018-03-03T00:14:04.738Z,17.90
2018-03-03T00:16:31.651Z,17.85
2018-03-03T00:18:58.592Z,18.15
2018-03-03T00:21:26.280Z,15.77
2018-03-03T00:23:53.213Z,16.48
2018-03-03T00:26:20.282Z,16.60
2018-03-03T00:28:47.248Z,15.98
2018-03-03T00:31:14.180Z,19.85
2018-03-03T00:33:41.149Z,17.80
2018-03-03T00:36:08.078Z,17.40
2018-03-03T00:38:35.025Z,17.85
2018-03-03T00:41:01.974Z,17.52
2018-03-03T00:43:29.662Z,18.35
2018-03-03T00:45:56.609Z,17.62
2018-03-03T00:48:23.531Z,19.92
2018-03-03T00:50:50.472Z,19.60
2018-03-03T00:53:17.424Z,18.27
2018-03-03T00:55:44.351Z,18.08
2018-03-03T00:58:11.296Z,16.87
2018-03-03T01:00:40.169Z,17.37
2018-03-03T01:03:07.104Z,21.48
2018-03-03T01:05:34.037Z,18.80
2018-03-03T01:08:01.718Z,18.98
2018-03-03T01:10:29.564Z,18.75
2018-03-03T01:12:56.479Z,19.02
2018-03-03T01:15:23.424Z,17.23
2018-03-03T01:17:50.356Z,18.70
2018-03-03T01:20:17.445Z,17.60
2018-03-03T01:22:44.379Z,18.30
2018-03-03T01:25:14.107Z,18.52
2018-03-03T01:27:41.041Z,19.00
2018-03-03T01:30:07.960Z,17.50
2018-03-03T01:32:34.889Z,19.95
2018-03-03T01:35:01.853Z,16.90
2018-03-03T01:37:29.565Z,17.95
2018-03-03T01:39:56.476Z,17.40
2018-03-03T01:42:24.168Z,17.62
2018-03-03T01:44:51.086Z,18.05
2018-03-03T01:47:18.787Z,16.70
2018-03-03T01:49:45.709Z,17.58
2018-03-03T01:52:12.648Z,16.17
2018-03-03T01:54:39.559Z,17.40
2018-03-03T01:57:06.769Z,15.43
2018-03-03T01:59:34.628Z,16.30
2018-03-03T02:02:01.546Z,16.17
2018-03-03T02:04:29.231Z,17.17
2018-03-03T02:06:56.278Z,17.15
2018-03-03T02:09:23.194Z,16.77
2018-03-03T02:11:50.896Z,17.08
2018-03-03T02:14:17.825Z,15.52
2018-03-03T02:16:44.763Z,16.67
2018-03-03T02:19:12.613Z,16.80
2018-03-03T02:21:40.332Z,15.18
2018-03-03T02:24:07.245Z,14.87
2018-03-03T02:26:34.192Z,16.95
2018-03-03T02:29:01.109Z,15.73
2018-03-03T02:31:28.805Z,15.95
2018-03-03T02:33:55.728Z,15.85
2018-03-03T02:36:22.661Z,18.05
2018-03-03T02:38:50.336Z,16.08
2018-03-03T02:41:17.278Z,16.48
2018-03-03T02:43:44.196Z,14.57
2018-03-03T02:46:11.132Z,13.20
2018-03-03T02:48:39.021Z,14.85
2018-03-03T02:51:06.722Z,15.75
2018-03-03T02:53:33.639Z,14.90
2018-03-03T02:56:01.492Z,16.95
2018-03-03T02:58:29.167Z,16.85
2018-03-03T03:00:56.102Z,15.85
2018-03-03T03:03:23.016Z,16.02
2018-03-03T03:05:49.952Z,14.48
2018-03-03T03:08:16.871Z,14.85
2018-03-03T03:10:43.804Z,14.30
2018-03-03T03:13:10.708Z,20.10
2018-03-03T03:15:37.627Z,17.75
2018-03-03T03:18:04.531Z,17.27
2018-03-03T03:20:31.457Z,17.15
2018-03-03T03:22:58.384Z,15.70
2018-03-03T03:25:26.079Z,17.73
2018-03-03T03:27:52.992Z,16.23
2018-03-03T03:30:20.697Z,16.12
2018-03-03T03:32:47.616Z,15.93
2018-03-03T03:35:15.309Z,16.70
2018-03-03T03:37:42.224Z,15.90
2018-03-03T03:40:09.163Z,17.55
2018-03-03T03:42:36.840Z,16.60
2018-03-03T03:45:03.779Z,17.02
2018-03-03T03:47:30.689Z,17.95
2018-03-03T03:49:57.636Z,15.90
2018-03-03T03:52:24.550Z,17.20
2018-03-03T03:54:51.470Z,15.50
2018-03-03T03:57:20.340Z,15.75
2018-03-03T03:59:48.044Z,16.73
2018-03-03T04:02:14.963Z,15.10
2018-03-03T04:04:41.878Z,15.07
2018-03-03T04:07:09.568Z,15.30
2018-03-03T04:09:36.488Z,15.20
2018-03-03T04:12:04.185Z,16.70
2018-03-03T04:14:31.117Z,15.63
2018-03-03T04:16:58.041Z,14.00
2018-03-03T04:19:25.741Z,14.73
2018-03-03T04:21:52.655Z,15.50
2018-03-03T04:24:19.664Z,14.60
2018-03-03T04:26:46.546Z,15.95
2018-03-03T04:29:13.464Z,15.77
2018-03-03T04:31:41.168Z,14.52
2018-03-03T04:34:10.028Z,16.00
2018-03-03T04:36:36.958Z,16.30
2018-03-03T04:39:04.839Z,15.35
2018-03-03T04:41:32.545Z,14.13
2018-03-03T04:43:59.455Z,15.10
2018-03-03T04:46:27.157Z,15.57
2018-03-03T04:48:54.076Z,13.80
2018-03-03T04:51:20.997Z,13.40
2018-03-03T04:53:48.688Z,14.77
2018-03-03T04:56:15.613Z,15.05
2018-03-03T04:58:42.529Z,14.18
2018-03-03T05:01:12.172Z,13.05
2018-03-03T05:03:39.096Z,13.57
2018-03-03T05:06:06.796Z,13.82
2018-03-03T05:08:33.729Z,14.68
2018-03-03T05:11:00.641Z,14.60
2018-03-03T05:13:27.576Z,12.73
2018-03-03T05:15:55.396Z,13.30
2018-03-03T05:18:22.333Z,15.85
2018-03-03T05:20:50.180Z,13.43
2018-03-03T05:23:18.090Z,16.35
2018-03-03T05:25:46.016Z,13.10
2018-03-03T05:28:13.697Z,17.58
2018-03-03T05:30:40.628Z,14.70
2018-03-03T05:33:07.549Z,16.25
2018-03-03T05:35:35.252Z,15.98
2018-03-03T05:38:02.167Z,16.73
2018-03-03T05:40:30.865Z,15.68
2018-03-03T05:42:57.789Z,17.23
2018-03-03T05:45:25.482Z,16.37
2018-03-03T05:47:52.389Z,16.10
2018-03-03T05:50:19.325Z,17.92
2018-03-03T05:52:46.240Z,17.25
2018-03-03T05:55:13.169Z,18.23
2018-03-03T05:57:40.085Z,17.73
2018-03-03T06:00:07.961Z,16.98
2018-03-03T06:02:34.881Z,19.98
2018-03-03T06:05:02.646Z,17.85
2018-03-03T06:07:30.337Z,20.92
2018-03-03T06:09:57.256Z,17.92
2018-03-03T06:12:24.960Z,22.42
2018-03-03T06:14:51.875Z,20.88
2018-03-03T06:17:18.804Z,20.27
2018-03-03T06:19:46.493Z,20.85
2018-03-03T06:22:14.350Z,19.83
2018-03-03T06:24:41.260Z,21.00
2018-03-03T06:27:08.189Z,20.62
2018-03-03T06:29:36.812Z,20.05
2018-03-03T06:32:04.504Z,21.25
2018-03-03T06:34:35.821Z,21.60
2018-03-03T06:37:03.517Z,21.02
2018-03-03T06:39:30.429Z,23.40
2018-03-03T06:41:59.129Z,21.50
2018-03-03T06:44:26.065Z,21.58
2018-03-03T06:46:53.777Z,19.90
2018-03-03T06:49:20.700Z,23.33
2018-03-03T06:51:47.635Z,21.17
2018-03-03T06:54:15.488Z,25.25
2018-03-03T06:56:43.368Z,22.80
2018-03-03T06:59:10.292Z,22.50
2018-03-03T07:01:38.980Z,21.65
2018-03-03T07:04:05.891Z,22.15
2018-03-03T07:06:32.833Z,23.55
2018-03-03T07:09:00.652Z,22.17
2018-03-03T07:11:27.576Z,21.30
2018-03-03T07:13:54.560Z,23.00
2018-03-03T07:16:21.488Z,22.52
2018-03-03T07:18:50.356Z,23.00
2018-03-03T07:21:18.070Z,32.05
2018-03-03T07:23:44.985Z,25.80
2018-03-03T07:26:12.837Z,24.60
2018-03-03T07:28:43.389Z,28.05
2018-03-03T07:31:10.349Z,22.45
2018-03-03T07:33:37.281Z,23.48
2018-03-03T07:36:04.227Z,23.48
2018-03-03T07:38:32.156Z,25.27
2018-03-03T07:41:00.061Z,23.38
2018-03-03T07:43:26.988Z,22.20
2018-03-03T07:45:55.884Z,25.88
2018-03-03T07:48:22.804Z,23.80
2018-03-03T07:50:49.741Z,22.15
2018-03-03T07:53:17.436Z,22.73
2018-03-03T07:55:44.362Z,22.13
2018-03-03T07:58:23.888Z,22.95
2018-03-03T08:00:51.591Z,22.67
2018-03-03T08:03:18.510Z,21.60
2018-03-03T08:05:45.448Z,22.50
2018-03-03T08:08:13.145Z,22.83
2018-03-03T08:10:40.102Z,21.90
2018-03-03T08:13:07.032Z,20.45
2018-03-03T08:15:33.953Z,22.00
2018-03-03T08:18:00.885Z,21.73
2018-03-03T08:20:28.573Z,22.10
2018-03-03T08:22:55.501Z,21.20
2018-03-03T08:25:24.374Z,19.90
2018-03-03T08:27:52.085Z,19.37
2018-03-03T08:30:22.096Z,18.25
2018-03-03T08:32:50.940Z,17.15
2018-03-03T08:35:20.001Z,19.95
2018-03-03T08:37:46.944Z,18.45
2018-03-03T08:40:13.922Z,18.92
2018-03-03T08:42:41.621Z,18.73
2018-03-03T08:45:08.530Z,18.50
2018-03-03T08:47:36.242Z,16.20
2018-03-03T08:50:03.157Z,16.90
2018-03-03T08:52:30.129Z,15.88
2018-03-03T08:54:57.044Z,14.90
2018-03-03T08:57:24.033Z,17.50
2018-03-03T08:59:51.946Z,14.90
2018-03-03T09:02:19.642Z,13.62
2018-03-03T09:04:46.564Z,14.15
2018-03-03T09:07:13.527Z,15.90
2018-03-03T09:09:40.448Z,14.23
2018-03-03T09:12:07.387Z,15.90
2018-03-03T09:14:35.079Z,14.82
2018-03-03T09:17:02.014Z,14.80
2018-03-03T09:19:28.932Z,13.50
2018-03-03T09:21:58.444Z,14.30
2018-03-03T09:24:27.393Z,13.70
2018-03-03T09:26:54.900Z,14.85
2018-03-03T09:29:21.809Z,13.48
2018-03-03T09:31:50.439Z,15.30
2018-03-03T09:34:17.369Z,13.30
2018-03-03T09:36:45.111Z,15.23
2018-03-03T09:39:12.814Z,15.45
2018-03-03T09:41:39.765Z,12.80
2018-03-03T09:44:06.727Z,13.30
2018-03-03T09:46:34.668Z,13.90
2018-03-03T09:49:01.624Z,13.10
2018-03-03T09:51:28.556Z,15.38
2018-03-03T09:53:55.500Z,13.85
2018-03-03T09:56:23.464Z,13.60
2018-03-03T09:58:51.372Z,12.68
2018-03-03T10:01:22.132Z,13.02
2018-03-03T10:03:49.085Z,12.10
2018-03-03T10:06:16.029Z,14.40
2018-03-03T10:08:43.864Z,12.65
2018-03-03T10:11:10.848Z,11.82
2018-03-03T10:13:39.599Z,13.48
2018-03-03T10:16:07.300Z,12.77
2018-03-03T10:18:35.141Z,11.77
2018-03-03T10:21:02.116Z,11.40
2018-03-03T10:23:30.085Z,14.63
2018-03-03T10:25:58.040Z,15.10
2018-03-03T10:28:25.088Z,14.00
2018-03-03T10:30:52.037Z,13.27
2018-03-03T10:33:20.893Z,13.62
2018-03-03T10:35:48.847Z,14.32
2018-03-03T10:38:16.553Z,14.25
2018-03-03T10:40:43.476Z,15.15
2018-03-03T10:43:11.210Z,13.85
2018-03-03T10:45:38.165Z,13.90
2018-03-03T10:48:06.875Z,13.50
2018-03-03T10:50:33.836Z,15.48
2018-03-03T10:53:00.796Z,14.27
2018-03-03T10:55:29.651Z,14.25
2018-03-03T10:57:57.517Z,15.40
2018-03-03T11:00:25.356Z,12.60
2018-03-03T11:02:52.288Z,10.07
2018-03-03T11:05:19.236Z,16.40
2018-03-03T11:07:46.190Z,13.93
2018-03-03T11:10:14.923Z,12.43
2018-03-03T11:12:41.878Z,13.27
2018-03-03T11:15:08.851Z,14.82
2018-03-03T11:17:35.780Z,14.25
2018-03-03T11:20:02.718Z,13.60
2018-03-03T11:22:30.693Z,13.48
2018-03-03T11:24:58.611Z,13.68
2018-03-03T11:27:26.308Z,15.27
2018-03-03T11:29:53.229Z,12.88
2018-03-03T11:32:20.140Z,14.32
2018-03-03T11:34:47.078Z,13.45
2018-03-03T11:37:14.008Z,13.45
2018-03-03T11:39:41.692Z,11.23
2018-03-03T11:42:08.645Z,14.90
2018-03-03T11:44:36.396Z,14.38
2018-03-03T11:47:05.405Z,13.20
2018-03-03T11:49:33.128Z,14.32
2018-03-03T11:52:01.154Z,13.82
2018-03-03T11:54:28.100Z,12.30
2018-03-03T11:56:55.801Z,13.48
2018-03-03T11:59:22.762Z,15.88
2018-03-03T12:01:51.064Z,13.93
2018-03-03T12:04:18.792Z,15.18
2018-03-03T12:06:45.733Z,14.52
2018-03-03T12:09:13.578Z,13.32
2018-03-03T12:11:40.519Z,14.05
2018-03-03T12:14:07.433Z,13.85
2018-03-03T12:16:35.154Z,15.52
2018-03-03T12:19:02.065Z,15.00
2018-03-03T12:21:29.013Z,15.70
2018-03-03T12:23:55.940Z,14.57
2018-03-03T12:26:23.635Z,15.40
2018-03-03T12:28:50.575Z,15.20
2018-03-03T12:31:17.484Z,14.40
2018-03-03T12:33:45.170Z,17.55
2018-03-03T12:36:13.034Z,16.15
2018-03-03T12:38:40.917Z,15.30
2018-03-03T12:41:08.856Z,15.38
2018-03-03T12:43:35.772Z,15.02
2018-03-03T12:46:03.665Z,15.68
2018-03-03T12:48:31.345Z,13.70
2018-03-03T12:50:58.281Z,15.63
2018-03-03T12:53:25.208Z,12.32
2018-03-03T12:55:52.141Z,13.57
2018-03-03T12:58:19.972Z,13.52
2018-03-03T13:00:46.921Z,13.65
2018-03-03T13:03:14.845Z,14.82
2018-03-03T13:05:42.712Z,15.93
2018-03-03T13:08:10.561Z,15.73
2018-03-03T13:10:39.301Z,14.77
2018-03-03T13:13:06.244Z,14.15
2018-03-03T13:15:33.185Z,13.68
2018-03-03T13:18:02.041Z,15.30
2018-03-03T13:20:30.945Z,15.10
2018-03-03T13:22:59.816Z,13.88
2018-03-03T13:25:27.528Z,14.05
2018-03-03T13:27:55.357Z,14.20
2018-03-03T13:30:27.724Z,17.10
2018-03-03T13:32:55.649Z,17.27
2018-03-03T13:35:22.621Z,13.15
2018-03-03T13:37:49.597Z,13.50
2018-03-03T13:40:16.523Z,13.57
2018-03-03T13:42:45.385Z,12.45
2018-03-03T13:45:12.325Z,14.45
2018-03-03T13:47:39.232Z,15.15
2018-03-03T13:50:06.972Z,14.63
2018-03-03T13:52:34.825Z,15.68
2018-03-03T13:55:01.759Z,15.77
2018-03-03T13:57:28.681Z,17.40
2018-03-03T13:59:56.376Z,15.52
2018-03-03T14:02:24.314Z,15.50
2018-03-03T14:04:51.237Z,15.85
2018-03-03T14:07:19.560Z,15.30
2018-03-03T14:09:47.389Z,16.08
2018-03-03T14:12:15.076Z,16.00
2018-03-03T14:14:41.997Z,15.57
2018-03-03T14:17:09.807Z,15.32
2018-03-03T14:19:36.743Z,13.60
2018-03-03T14:22:03.675Z,15.65
2018-03-03T14:24:31.673Z,16.40
2018-03-03T14:26:58.612Z,15.10
2018-03-03T14:29:25.540Z,16.27
2018-03-03T14:31:52.502Z,16.25
2018-03-03T14:34:20.440Z,15.07
2018-03-03T14:36:47.710Z,13.82
2018-03-03T14:39:15.648Z,14.60
2018-03-03T14:41:51.824Z,14.05
2018-03-03T14:44:18.765Z,15.00
2018-03-03T14:46:45.771Z,15.27
2018-03-03T14:49:12.747Z,14.32
2018-03-03T14:51:39.660Z,12.63
2018-03-03T14:54:07.364Z,14.65
2018-03-03T14:56:34.743Z,15.02
2018-03-03T14:59:01.772Z,15.70
2018-03-03T15:01:28.678Z,15.73
2018-03-03T15:03:55.640Z,14.75
2018-03-03T15:06:22.565Z,15.13
2018-03-03T15:08:49.486Z,14.52
2018-03-03T15:11:18.205Z,13.93
2018-03-03T15:13:45.134Z,15.52
2018-03-03T15:16:12.053Z,15.75
2018-03-03T15:18:39.019Z,15.63
2018-03-03T15:21:06.926Z,14.95
2018-03-03T15:23:34.628Z,15.65
2018-03-03T15:26:01.556Z,13.82
2018-03-03T15:28:28.460Z,16.67
2018-03-03T15:30:57.413Z,14.70
2018-03-03T15:33:24.328Z,15.60
2018-03-03T15:35:51.304Z,16.83
2018-03-03T15:38:19.241Z,15.90
2018-03-03T15:40:46.184Z,17.83
2018-03-03T15:43:13.877Z,14.73
2018-03-03T15:45:40.802Z,15.73
2018-03-03T15:48:08.614Z,16.42
2018-03-03T15:50:36.614Z,16.83
2018-03-03T15:53:03.494Z,13.73
2018-03-03T15:55:31.392Z,17.00
2018-03-03T15:57:58.309Z,16.30
2018-03-03T16:00:25.658Z,15.32
2018-03-03T16:02:52.569Z,15.65
2018-03-03T16:05:20.308Z,15.98
2018-03-03T16:07:47.260Z,15.65
2018-03-03T16:10:14.222Z,18.33
2018-03-03T16:12:41.992Z,16.90
2018-03-03T16:15:08.983Z,18.15
2018-03-03T16:17:35.931Z,17.90
2018-03-03T16:20:02.864Z,16.05
2018-03-03T16:22:29.880Z,15.25
2018-03-03T16:24:57.580Z,16.92
2018-03-03T16:27:24.533Z,16.08
2018-03-03T16:29:51.449Z,16.48
2018-03-03T16:32:18.882Z,16.98
2018-03-03T16:34:47.701Z,16.50
2018-03-03T16:37:14.649Z,17.50
2018-03-03T16:39:42.816Z,16.35
2018-03-03T16:42:09.789Z,16.30
2018-03-03T16:44:36.725Z,15.70
2018-03-03T16:47:04.694Z,15.05
2018-03-03T16:49:31.668Z,17.23
2018-03-03T16:51:58.595Z,17.85
2018-03-03T16:54:25.534Z,17.23
2018-03-03T16:56:52.468Z,17.83
2018-03-03T16:59:24.142Z,15.77
2018-03-03T17:01:51.067Z,18.27
2018-03-03T17:04:17.992Z,16.25
2018-03-03T17:06:45.021Z,15.95
2018-03-03T17:09:14.965Z,18.40
2018-03-03T17:11:41.875Z,16.48
2018-03-03T17:14:12.162Z,17.50
2018-03-03T17:16:39.110Z,15.88
2018-03-03T17:19:06.084Z,15.90
2018-03-03T17:21:34.760Z,17.12
2018-03-03T17:24:02.974Z,16.25
2018-03-03T17:26:29.892Z,16.37
2018-03-03T17:28:59.012Z,19.65
2018-03-03T17:31:25.955Z,16.83
2018-03-03T17:33:54.031Z,18.77
2018-03-03T17:36:20.972Z,18.12
2018-03-03T17:38:47.910Z,16.80
2018-03-03T17:41:15.172Z,15.63
2018-03-03T17:43:42.109Z,16.45
2018-03-03T17:46:09.025Z,16.30
2018-03-03T17:48:36.740Z,15.77
2018-03-03T17:51:04.653Z,17.08
2018-03-03T17:53:32.358Z,16.23
2018-03-03T17:55:59.278Z,16.20
2018-03-03T17:58:26.221Z,16.75
2018-03-03T18:00:53.151Z,17.12
2018-03-03T18:03:20.852Z,16.10
2018-03-03T18:05:48.922Z,15.70
2018-03-03T18:08:15.843Z,18.17
2018-03-03T18:10:43.516Z,17.30
2018-03-03T18:13:10.474Z,16.42
2018-03-03T18:15:37.392Z,17.23
2018-03-03T18:18:05.386Z,15.95
2018-03-03T18:20:32.358Z,16.40
2018-03-03T18:22:59.373Z,15.52
2018-03-03T18:25:27.248Z,16.08
2018-03-03T18:27:55.236Z,15.13
2018-03-03T18:30:22.176Z,16.00
2018-03-03T18:32:49.100Z,15.32
2018-03-03T18:35:16.121Z,16.77
2018-03-03T18:37:43.910Z,14.90
2018-03-03T18:40:10.853Z,17.20
2018-03-03T18:42:39.860Z,15.93
2018-03-03T18:45:06.808Z,15.68
2018-03-03T18:47:33.762Z,14.82
2018-03-03T18:50:00.770Z,16.80
2018-03-03T18:52:27.719Z,15.55
2018-03-03T18:54:54.668Z,17.70
2018-03-03T18:57:21.647Z,16.10
2018-03-03T18:59:48.660Z,16.48
2018-03-03T19:02:15.596Z,18.58
2018-03-03T19:04:42.559Z,15.20
2018-03-03T19:07:10.385Z,14.70
2018-03-03T19:09:37.331Z,14.82
2018-03-03T19:12:05.097Z,17.95
2018-03-03T19:14:34.720Z,15.77
2018-03-03T19:17:02.475Z,16.70
2018-03-03T19:19:31.155Z,16.40
2018-03-03T19:21:58.188Z,14.80
2018-03-03T19:24:28.771Z,15.95
2018-03-03T19:26:58.892Z,15.57
2018-03-03T19:29:26.614Z,17.10
2018-03-03T19:31:54.426Z,15.52
2018-03-03T19:34:22.280Z,13.90
2018-03-03T19:36:49.294Z,15.30
2018-03-03T19:39:17.845Z,15.30
2018-03-03T19:41:44.835Z,16.95
2018-03-03T19:44:11.806Z,16.67
2018-03-03T19:46:38.749Z,15.70
2018-03-03T19:49:06.697Z,17.35
2018-03-03T19:51:33.625Z,16.80
2018-03-03T19:54:01.308Z,16.40
2018-03-03T19:56:28.287Z,16.48
2018-03-03T19:58:55.209Z,16.60
2018-03-03T20:01:22.148Z,15.63
2018-03-03T20:03:49.084Z,15.55
2018-03-03T20:06:16.022Z,16.05
2018-03-03T20:08:42.948Z,17.17
2018-03-03T20:11:11.683Z,18.73
2018-03-03T20:13:38.601Z,19.12
2018-03-03T20:16:05.571Z,19.20
2018-03-03T20:18:32.491Z,18.05
2018-03-03T20:21:00.209Z,17.75
2018-03-03T20:23:27.146Z,17.45
2018-03-03T20:25:54.069Z,16.05
2018-03-03T20:28:21.021Z,19.60
2018-03-03T20:30:47.969Z,20.12
2018-03-03T20:33:14.921Z,23.15
2018-03-03T20:35:41.848Z,23.73
2018-03-03T20:38:08.756Z,21.40
2018-03-03T20:40:35.673Z,20.90
2018-03-03T20:43:02.579Z,19.25
2018-03-03T20:45:29.512Z,19.67
2018-03-03T20:47:56.457Z,19.37
2018-03-03T20:50:24.176Z,17.35
2018-03-03T20:52:52.099Z,19.90
2018-03-03T20:55:19.016Z,19.45
2018-03-03T20:57:47.728Z,18.15
2018-03-03T21:00:14.665Z,19.45
2018-03-03T21:02:41.595Z,18.10
2018-03-03T21:05:08.609Z,18.00
2018-03-03T21:07:35.533Z,18.10
2018-03-03T21:10:02.467Z,19.83
2018-03-03T21:12:29.423Z,17.33
2018-03-03T21:14:56.353Z,19.37
2018-03-03T21:17:23.339Z,17.42
2018-03-03T21:19:50.288Z,18.70
2018-03-03T21:22:19.248Z,19.90
2018-03-03T21:24:46.177Z,18.10
2018-03-03T21:27:14.151Z,19.65
2018-03-03T21:29:42.657Z,17.95
2018-03-03T21:32:09.609Z,20.85
2018-03-03T21:34:37.529Z,21.20
2018-03-03T21:37:04.456Z,19.35
2018-03-03T21:39:32.149Z,19.83
2018-03-03T21:41:59.096Z,18.48
2018-03-03T21:44:26.063Z,19.33
2018-03-03T21:46:53.008Z,21.40
2018-03-03T21:49:19.921Z,20.67
2018-03-03T21:51:47.173Z,19.00
2018-03-03T21:54:14.094Z,19.50
2018-03-03T21:56:41.799Z,19.23
2018-03-03T21:59:08.719Z,20.20
2018-03-03T22:01:35.651Z,17.35
2018-03-03T22:04:03.337Z,18.85
2018-03-03T22:06:30.279Z,20.25
2018-03-03T22:08:57.197Z,19.17
2018-03-03T22:11:26.830Z,20.37
2018-03-03T22:13:54.681Z,21.10
2018-03-03T22:16:22.552Z,19.40
2018-03-03T22:18:50.401Z,17.75
2018-03-03T22:21:18.136Z,19.62
2018-03-03T22:23:45.088Z,20.67
2018-03-03T22:26:12.008Z,20.65
2018-03-03T22:28:38.979Z,21.02
2018-03-03T22:31:07.929Z,22.67
2018-03-03T22:33:34.857Z,23.25
2018-03-03T22:36:01.800Z,21.20
2018-03-03T22:38:28.718Z,21.35
2018-03-03T22:40:55.659Z,22.75
2018-03-03T22:43:24.415Z,22.00
2018-03-03T22:45:51.362Z,20.50
2018-03-03T22:48:18.276Z,22.50
2018-03-03T22:50:45.206Z,22.10
2018-03-03T22:53:13.057Z,20.23
2018-03-03T22:55:40.762Z,22.13
2018-03-03T22:58:07.676Z,21.25
2018-03-03T23:00:34.615Z,20.30
2018-03-03T23:03:01.541Z,23.70
2018-03-03T23:05:29.256Z,19.37
2018-03-03T23:08:02.374Z,22.52
2018-03-03T23:10:29.310Z,20.62
2018-03-03T23:12:56.238Z,22.62
2018-03-03T23:15:23.173Z,25.98
2018-03-03T23:17:50.088Z,20.48
2018-03-03T23:20:17.789Z,22.95
2018-03-03T23:22:44.710Z,19.75
2018-03-03T23:25:11.672Z,20.65
2018-03-03T23:27:39.596Z,22.85
2018-03-03T23:30:07.351Z,20.60
2018-03-03T23:32:34.300Z,22.75
2018-03-03T23:35:02.022Z,20.58
2018-03-03T23:37:28.969Z,21.05
2018-03-03T23:39:56.904Z,21.02
2018-03-03T23:42:23.833Z,20.42
2018-03-03T23:44:50.772Z,20.75
2018-03-03T23:47:17.692Z,22.62
2018-03-03T23:49:44.637Z,25.70
2018-03-03T23:52:13.365Z,23.08
2018-03-03T23:54:40.390Z,22.33
2018-03-03T23:57:07.368Z,22.20
2018-03-03T23:59:34.291Z,25.58
